<?xml version="1.0" encoding="UTF-8" standalone="yes"?>
<gpx
 xmlns="http://www.topografix.com/GPX/1/1"
 creator="OziExplorer Version 3956f - http://www.oziexplorer.com"
 version="1.1"
 xmlns:xsi="http://www.w3.org/2001/XMLSchema-instance"
 xsi:schemaLocation="http://www.topografix.com/GPX/1/1 http://www.topografix.com/GPX/1/1/gpx.xsd">
<metadata>
 <time>2016-06-07T13:18:32Z</time>
 <bounds minlat="40.689587" minlon="14.527239" maxlat="40.693578" maxlon="14.560759"/>
</metadata>
<trk>
 <name>345b - Difficoltà: E</name>
 <desc>345b - Difficoltà: E</desc>
<trkseg>
<trkpt lat="40.6903204" lon="14.5607593">
<ele>585.099976</ele>
<time>2015-02-13T13:55:45.000Z</time>
</trkpt>
<trkpt lat="40.6903125" lon="14.5607577">
<ele>585.099976</ele>
<time>2015-02-13T13:55:58.000Z</time>
</trkpt>
<trkpt lat="40.6903093" lon="14.5607563">
<ele>585.099976</ele>
<time>2015-02-13T13:55:59.000Z</time>
</trkpt>
<trkpt lat="40.6902348" lon="14.5606891">
<ele>586.540039</ele>
<time>2015-02-13T13:56:11.000Z</time>
</trkpt>
<trkpt lat="40.6902049" lon="14.5606104">
<ele>587.500000</ele>
<time>2015-02-13T13:56:23.000Z</time>
</trkpt>
<trkpt lat="40.6901842" lon="14.5605064">
<ele>589.429993</ele>
<time>2015-02-13T13:56:36.000Z</time>
</trkpt>
<trkpt lat="40.6901877" lon="14.5604664">
<ele>590.869995</ele>
<time>2015-02-13T13:56:46.000Z</time>
</trkpt>
<trkpt lat="40.6901774" lon="14.5603904">
<ele>592.790039</ele>
<time>2015-02-13T13:56:58.000Z</time>
</trkpt>
<trkpt lat="40.6901655" lon="14.5603121">
<ele>593.750000</ele>
<time>2015-02-13T13:57:08.000Z</time>
</trkpt>
<trkpt lat="40.6901764" lon="14.5602892">
<ele>594.229980</ele>
<time>2015-02-13T13:57:18.000Z</time>
</trkpt>
<trkpt lat="40.6901558" lon="14.5602555">
<ele>594.710022</ele>
<time>2015-02-13T13:57:32.000Z</time>
</trkpt>
<trkpt lat="40.6901702" lon="14.5601568">
<ele>594.710022</ele>
<time>2015-02-13T13:57:43.000Z</time>
</trkpt>
<trkpt lat="40.6901651" lon="14.5601128">
<ele>596.149963</ele>
<time>2015-02-13T13:57:53.000Z</time>
</trkpt>
<trkpt lat="40.6901521" lon="14.5600619">
<ele>597.599976</ele>
<time>2015-02-13T13:58:03.000Z</time>
</trkpt>
<trkpt lat="40.6901641" lon="14.5599638">
<ele>598.559998</ele>
<time>2015-02-13T13:58:15.000Z</time>
</trkpt>
<trkpt lat="40.6901862" lon="14.5598585">
<ele>599.519958</ele>
<time>2015-02-13T13:58:26.000Z</time>
</trkpt>
<trkpt lat="40.6901962" lon="14.5597984">
<ele>600.479980</ele>
<time>2015-02-13T13:58:35.000Z</time>
</trkpt>
<trkpt lat="40.6901955" lon="14.5597803">
<ele>600.960022</ele>
<time>2015-02-13T13:58:48.000Z</time>
</trkpt>
<trkpt lat="40.6901995" lon="14.5597357">
<ele>602.399963</ele>
<time>2015-02-13T13:58:58.000Z</time>
</trkpt>
<trkpt lat="40.6902089" lon="14.5597200">
<ele>602.880005</ele>
<time>2015-02-13T13:59:10.000Z</time>
</trkpt>
<trkpt lat="40.6902121" lon="14.5596572">
<ele>603.359985</ele>
<time>2015-02-13T13:59:22.000Z</time>
</trkpt>
<trkpt lat="40.6902398" lon="14.5596125">
<ele>603.849976</ele>
<time>2015-02-13T13:59:33.000Z</time>
</trkpt>
<trkpt lat="40.6902621" lon="14.5595591">
<ele>604.330017</ele>
<time>2015-02-13T13:59:46.000Z</time>
</trkpt>
<trkpt lat="40.6902903" lon="14.5594630">
<ele>606.250000</ele>
<time>2015-02-13T13:59:59.000Z</time>
</trkpt>
<trkpt lat="40.6902846" lon="14.5593842">
<ele>607.690002</ele>
<time>2015-02-13T14:00:12.000Z</time>
</trkpt>
<trkpt lat="40.6903083" lon="14.5592832">
<ele>608.649963</ele>
<time>2015-02-13T14:00:26.000Z</time>
</trkpt>
<trkpt lat="40.6903248" lon="14.5591898">
<ele>610.090027</ele>
<time>2015-02-13T14:00:39.000Z</time>
</trkpt>
<trkpt lat="40.6902862" lon="14.5591521">
<ele>612.019958</ele>
<time>2015-02-13T14:00:52.000Z</time>
</trkpt>
<trkpt lat="40.6903001" lon="14.5591289">
<ele>612.500000</ele>
<time>2015-02-13T14:01:06.000Z</time>
</trkpt>
<trkpt lat="40.6902623" lon="14.5590300">
<ele>618.260010</ele>
<time>2015-02-13T14:02:15.000Z</time>
</trkpt>
<trkpt lat="40.6901913" lon="14.5589320">
<ele>616.340027</ele>
<time>2015-02-13T14:02:30.000Z</time>
</trkpt>
<trkpt lat="40.6901400" lon="14.5588388">
<ele>615.859985</ele>
<time>2015-02-13T14:02:39.000Z</time>
</trkpt>
<trkpt lat="40.6900857" lon="14.5587699">
<ele>616.340027</ele>
<time>2015-02-13T14:02:55.000Z</time>
</trkpt>
<trkpt lat="40.6900143" lon="14.5586665">
<ele>617.299988</ele>
<time>2015-02-13T14:03:10.000Z</time>
</trkpt>
<trkpt lat="40.6899567" lon="14.5585675">
<ele>617.780029</ele>
<time>2015-02-13T14:03:23.000Z</time>
</trkpt>
<trkpt lat="40.6899267" lon="14.5584825">
<ele>618.260010</ele>
<time>2015-02-13T14:03:36.000Z</time>
</trkpt>
<trkpt lat="40.6898868" lon="14.5584077">
<ele>618.750000</ele>
<time>2015-02-13T14:03:48.000Z</time>
</trkpt>
<trkpt lat="40.6898787" lon="14.5582990">
<ele>620.190002</ele>
<time>2015-02-13T14:04:00.000Z</time>
</trkpt>
<trkpt lat="40.6898570" lon="14.5582234">
<ele>619.710022</ele>
<time>2015-02-13T14:04:13.000Z</time>
</trkpt>
<trkpt lat="40.6898394" lon="14.5579901">
<ele>619.710022</ele>
<time>2015-02-13T14:04:28.000Z</time>
</trkpt>
<trkpt lat="40.6898064" lon="14.5578665">
<ele>618.750000</ele>
<time>2015-02-13T14:04:41.000Z</time>
</trkpt>
<trkpt lat="40.6897849" lon="14.5577124">
<ele>618.260010</ele>
<time>2015-02-13T14:04:55.000Z</time>
</trkpt>
<trkpt lat="40.6897887" lon="14.5575362">
<ele>618.750000</ele>
<time>2015-02-13T14:05:08.000Z</time>
</trkpt>
<trkpt lat="40.6897776" lon="14.5574245">
<ele>619.229980</ele>
<time>2015-02-13T14:05:21.000Z</time>
</trkpt>
<trkpt lat="40.6897715" lon="14.5572964">
<ele>619.710022</ele>
<time>2015-02-13T14:05:37.000Z</time>
</trkpt>
<trkpt lat="40.6897699" lon="14.5572573">
<ele>620.669983</ele>
<time>2015-02-13T14:05:53.000Z</time>
</trkpt>
<trkpt lat="40.6898145" lon="14.5570969">
<ele>623.070007</ele>
<time>2015-02-13T14:06:08.000Z</time>
</trkpt>
<trkpt lat="40.6898278" lon="14.5570344">
<ele>623.549988</ele>
<time>2015-02-13T14:06:18.000Z</time>
</trkpt>
<trkpt lat="40.6898629" lon="14.5569306">
<ele>624.989990</ele>
<time>2015-02-13T14:06:33.000Z</time>
</trkpt>
<trkpt lat="40.6898101" lon="14.5568379">
<ele>625.469971</ele>
<time>2015-02-13T14:06:46.000Z</time>
</trkpt>
<trkpt lat="40.6898470" lon="14.5566805">
<ele>624.509949</ele>
<time>2015-02-13T14:07:02.000Z</time>
</trkpt>
<trkpt lat="40.6898477" lon="14.5565518">
<ele>624.509949</ele>
<time>2015-02-13T14:07:15.000Z</time>
</trkpt>
<trkpt lat="40.6898847" lon="14.5564718">
<ele>626.440002</ele>
<time>2015-02-13T14:07:28.000Z</time>
</trkpt>
<trkpt lat="40.6899013" lon="14.5563440">
<ele>627.879944</ele>
<time>2015-02-13T14:07:41.000Z</time>
</trkpt>
<trkpt lat="40.6899412" lon="14.5562465">
<ele>629.799988</ele>
<time>2015-02-13T14:07:54.000Z</time>
</trkpt>
<trkpt lat="40.6899453" lon="14.5561651">
<ele>631.239990</ele>
<time>2015-02-13T14:08:06.000Z</time>
</trkpt>
<trkpt lat="40.6899339" lon="14.5560721">
<ele>632.200012</ele>
<time>2015-02-13T14:08:17.000Z</time>
</trkpt>
<trkpt lat="40.6899220" lon="14.5560037">
<ele>633.169983</ele>
<time>2015-02-13T14:08:30.000Z</time>
</trkpt>
<trkpt lat="40.6898920" lon="14.5559623">
<ele>634.130005</ele>
<time>2015-02-13T14:08:40.000Z</time>
</trkpt>
<trkpt lat="40.6898422" lon="14.5557739">
<ele>635.570007</ele>
<time>2015-02-13T14:08:51.000Z</time>
</trkpt>
<trkpt lat="40.6898313" lon="14.5555404">
<ele>636.530029</ele>
<time>2015-02-13T14:09:03.000Z</time>
</trkpt>
<trkpt lat="40.6898173" lon="14.5553807">
<ele>637.009949</ele>
<time>2015-02-13T14:09:14.000Z</time>
</trkpt>
<trkpt lat="40.6898293" lon="14.5552598">
<ele>636.050049</ele>
<time>2015-02-13T14:09:26.000Z</time>
</trkpt>
<trkpt lat="40.6898215" lon="14.5551780">
<ele>636.050049</ele>
<time>2015-02-13T14:09:39.000Z</time>
</trkpt>
<trkpt lat="40.6898349" lon="14.5550326">
<ele>633.169983</ele>
<time>2015-02-13T14:09:51.000Z</time>
</trkpt>
<trkpt lat="40.6898578" lon="14.5548912">
<ele>631.239990</ele>
<time>2015-02-13T14:10:04.000Z</time>
</trkpt>
<trkpt lat="40.6898798" lon="14.5547390">
<ele>630.279968</ele>
<time>2015-02-13T14:10:19.000Z</time>
</trkpt>
<trkpt lat="40.6898920" lon="14.5545244">
<ele>627.879944</ele>
<time>2015-02-13T14:10:34.000Z</time>
</trkpt>
<trkpt lat="40.6899355" lon="14.5543943">
<ele>627.399963</ele>
<time>2015-02-13T14:10:46.000Z</time>
</trkpt>
<trkpt lat="40.6900109" lon="14.5543906">
<ele>628.359985</ele>
<time>2015-02-13T14:10:58.000Z</time>
</trkpt>
<trkpt lat="40.6900544" lon="14.5544050">
<ele>629.320007</ele>
<time>2015-02-13T14:11:11.000Z</time>
</trkpt>
<trkpt lat="40.6901139" lon="14.5543652">
<ele>631.239990</ele>
<time>2015-02-13T14:11:25.000Z</time>
</trkpt>
<trkpt lat="40.6901457" lon="14.5540071">
<ele>633.169983</ele>
<time>2015-02-13T14:11:38.000Z</time>
</trkpt>
<trkpt lat="40.6901852" lon="14.5538757">
<ele>634.130005</ele>
<time>2015-02-13T14:11:51.000Z</time>
</trkpt>
<trkpt lat="40.6902169" lon="14.5537908">
<ele>635.090027</ele>
<time>2015-02-13T14:12:03.000Z</time>
</trkpt>
<trkpt lat="40.6902115" lon="14.5537038">
<ele>636.530029</ele>
<time>2015-02-13T14:12:15.000Z</time>
</trkpt>
<trkpt lat="40.6901940" lon="14.5535659">
<ele>638.450012</ele>
<time>2015-02-13T14:12:27.000Z</time>
</trkpt>
<trkpt lat="40.6901613" lon="14.5534501">
<ele>639.409973</ele>
<time>2015-02-13T14:12:40.000Z</time>
</trkpt>
<trkpt lat="40.6901619" lon="14.5533281">
<ele>640.859985</ele>
<time>2015-02-13T14:12:53.000Z</time>
</trkpt>
<trkpt lat="40.6901129" lon="14.5532434">
<ele>642.779968</ele>
<time>2015-02-13T14:13:06.000Z</time>
</trkpt>
<trkpt lat="40.6900543" lon="14.5531416">
<ele>644.700012</ele>
<time>2015-02-13T14:13:20.000Z</time>
</trkpt>
<trkpt lat="40.6900238" lon="14.5530953">
<ele>646.139954</ele>
<time>2015-02-13T14:13:32.000Z</time>
</trkpt>
<trkpt lat="40.6900002" lon="14.5530466">
<ele>647.590027</ele>
<time>2015-02-13T14:13:43.000Z</time>
</trkpt>
<trkpt lat="40.6899881" lon="14.5529984">
<ele>648.070007</ele>
<time>2015-02-13T14:13:53.000Z</time>
</trkpt>
<trkpt lat="40.6899896" lon="14.5529081">
<ele>648.070007</ele>
<time>2015-02-13T14:14:07.000Z</time>
</trkpt>
<trkpt lat="40.6899747" lon="14.5527827">
<ele>650.950012</ele>
<time>2015-02-13T14:14:20.000Z</time>
</trkpt>
<trkpt lat="40.6899605" lon="14.5526931">
<ele>652.390015</ele>
<time>2015-02-13T14:14:33.000Z</time>
</trkpt>
<trkpt lat="40.6899660" lon="14.5526278">
<ele>653.350037</ele>
<time>2015-02-13T14:14:43.000Z</time>
</trkpt>
<trkpt lat="40.6899639" lon="14.5525620">
<ele>652.869995</ele>
<time>2015-02-13T14:15:39.000Z</time>
</trkpt>
<trkpt lat="40.6899627" lon="14.5524931">
<ele>653.350037</ele>
<time>2015-02-13T14:15:47.000Z</time>
</trkpt>
<trkpt lat="40.6899583" lon="14.5524534">
<ele>653.350037</ele>
<time>2015-02-13T14:15:50.000Z</time>
</trkpt>
<trkpt lat="40.6899553" lon="14.5523585">
<ele>654.799988</ele>
<time>2015-02-13T14:16:02.000Z</time>
</trkpt>
<trkpt lat="40.6899313" lon="14.5522657">
<ele>656.720032</ele>
<time>2015-02-13T14:16:16.000Z</time>
</trkpt>
<trkpt lat="40.6899268" lon="14.5522108">
<ele>657.679993</ele>
<time>2015-02-13T14:16:26.000Z</time>
</trkpt>
<trkpt lat="40.6899594" lon="14.5522048">
<ele>656.239990</ele>
<time>2015-02-13T14:16:40.000Z</time>
</trkpt>
<trkpt lat="40.6899504" lon="14.5521618">
<ele>657.200012</ele>
<time>2015-02-13T14:17:28.000Z</time>
</trkpt>
<trkpt lat="40.6899487" lon="14.5520931">
<ele>658.160034</ele>
<time>2015-02-13T14:17:37.000Z</time>
</trkpt>
<trkpt lat="40.6899516" lon="14.5520807">
<ele>658.160034</ele>
<time>2015-02-13T14:17:38.000Z</time>
</trkpt>
<trkpt lat="40.6900222" lon="14.5519134">
<ele>658.639954</ele>
<time>2015-02-13T14:17:50.000Z</time>
</trkpt>
<trkpt lat="40.6900699" lon="14.5517419">
<ele>658.639954</ele>
<time>2015-02-13T14:18:03.000Z</time>
</trkpt>
<trkpt lat="40.6900737" lon="14.5517509">
<ele>658.639954</ele>
<time>2015-02-13T14:18:12.000Z</time>
</trkpt>
<trkpt lat="40.6900903" lon="14.5517384">
<ele>658.639954</ele>
<time>2015-02-13T14:18:20.000Z</time>
</trkpt>
<trkpt lat="40.6901065" lon="14.5516610">
<ele>658.639954</ele>
<time>2015-02-13T14:18:31.000Z</time>
</trkpt>
<trkpt lat="40.6901058" lon="14.5516478">
<ele>658.639954</ele>
<time>2015-02-13T14:18:46.000Z</time>
</trkpt>
<trkpt lat="40.6901322" lon="14.5515937">
<ele>659.120056</ele>
<time>2015-02-13T14:18:55.000Z</time>
</trkpt>
<trkpt lat="40.6901753" lon="14.5514846">
<ele>659.599976</ele>
<time>2015-02-13T14:19:06.000Z</time>
</trkpt>
<trkpt lat="40.6901962" lon="14.5514087">
<ele>660.559998</ele>
<time>2015-02-13T14:19:16.000Z</time>
</trkpt>
<trkpt lat="40.6902417" lon="14.5513089">
<ele>661.520020</ele>
<time>2015-02-13T14:19:28.000Z</time>
</trkpt>
<trkpt lat="40.6902494" lon="14.5512874">
<ele>662.009949</ele>
<time>2015-02-13T14:19:39.000Z</time>
</trkpt>
<trkpt lat="40.6902654" lon="14.5512714">
<ele>662.009949</ele>
<time>2015-02-13T14:19:50.000Z</time>
</trkpt>
<trkpt lat="40.6902626" lon="14.5512989">
<ele>662.009949</ele>
<time>2015-02-13T14:20:01.000Z</time>
</trkpt>
<trkpt lat="40.6902856" lon="14.5512224">
<ele>662.489990</ele>
<time>2015-02-13T14:20:10.000Z</time>
</trkpt>
<trkpt lat="40.6902798" lon="14.5511370">
<ele>663.929993</ele>
<time>2015-02-13T14:20:20.000Z</time>
</trkpt>
<trkpt lat="40.6902852" lon="14.5510778">
<ele>663.450012</ele>
<time>2015-02-13T14:20:30.000Z</time>
</trkpt>
<trkpt lat="40.6902986" lon="14.5509681">
<ele>663.929993</ele>
<time>2015-02-13T14:20:41.000Z</time>
</trkpt>
<trkpt lat="40.6903154" lon="14.5509075">
<ele>664.409973</ele>
<time>2015-02-13T14:20:50.000Z</time>
</trkpt>
<trkpt lat="40.6903266" lon="14.5508638">
<ele>664.409973</ele>
<time>2015-02-13T14:21:01.000Z</time>
</trkpt>
<trkpt lat="40.6903214" lon="14.5507454">
<ele>664.409973</ele>
<time>2015-02-13T14:21:11.000Z</time>
</trkpt>
<trkpt lat="40.6903405" lon="14.5506629">
<ele>664.890015</ele>
<time>2015-02-13T14:21:18.000Z</time>
</trkpt>
<trkpt lat="40.6903464" lon="14.5505541">
<ele>665.850037</ele>
<time>2015-02-13T14:21:30.000Z</time>
</trkpt>
<trkpt lat="40.6903535" lon="14.5505396">
<ele>666.330017</ele>
<time>2015-02-13T14:21:41.000Z</time>
</trkpt>
<trkpt lat="40.6903618" lon="14.5504475">
<ele>666.809998</ele>
<time>2015-02-13T14:21:54.000Z</time>
</trkpt>
<trkpt lat="40.6903794" lon="14.5503750">
<ele>666.809998</ele>
<time>2015-02-13T14:22:00.000Z</time>
</trkpt>
<trkpt lat="40.6903842" lon="14.5502451">
<ele>667.290039</ele>
<time>2015-02-13T14:22:12.000Z</time>
</trkpt>
<trkpt lat="40.6904049" lon="14.5501362">
<ele>668.249939</ele>
<time>2015-02-13T14:22:24.000Z</time>
</trkpt>
<trkpt lat="40.6904094" lon="14.5500952">
<ele>669.220032</ele>
<time>2015-02-13T14:22:30.000Z</time>
</trkpt>
<trkpt lat="40.6904369" lon="14.5499684">
<ele>669.700012</ele>
<time>2015-02-13T14:22:41.000Z</time>
</trkpt>
<trkpt lat="40.6904552" lon="14.5498414">
<ele>669.700012</ele>
<time>2015-02-13T14:22:52.000Z</time>
</trkpt>
<trkpt lat="40.6904620" lon="14.5497640">
<ele>669.700012</ele>
<time>2015-02-13T14:23:01.000Z</time>
</trkpt>
<trkpt lat="40.6904928" lon="14.5496231">
<ele>669.700012</ele>
<time>2015-02-13T14:23:13.000Z</time>
</trkpt>
<trkpt lat="40.6905235" lon="14.5495336">
<ele>670.179993</ele>
<time>2015-02-13T14:23:21.000Z</time>
</trkpt>
<trkpt lat="40.6905405" lon="14.5494568">
<ele>670.179993</ele>
<time>2015-02-13T14:23:27.000Z</time>
</trkpt>
<trkpt lat="40.6905533" lon="14.5493924">
<ele>670.179993</ele>
<time>2015-02-13T14:23:32.000Z</time>
</trkpt>
<trkpt lat="40.6905744" lon="14.5493572">
<ele>669.700012</ele>
<time>2015-02-13T14:23:35.000Z</time>
</trkpt>
<trkpt lat="40.6905871" lon="14.5492948">
<ele>669.700012</ele>
<time>2015-02-13T14:23:40.000Z</time>
</trkpt>
<trkpt lat="40.6906262" lon="14.5491574">
<ele>669.700012</ele>
<time>2015-02-13T14:23:51.000Z</time>
</trkpt>
<trkpt lat="40.6906341" lon="14.5491339">
<ele>670.179993</ele>
<time>2015-02-13T14:23:53.000Z</time>
</trkpt>
<trkpt lat="40.6906767" lon="14.5489905">
<ele>671.139954</ele>
<time>2015-02-13T14:24:06.000Z</time>
</trkpt>
<trkpt lat="40.6906930" lon="14.5488902">
<ele>672.579956</ele>
<time>2015-02-13T14:24:17.000Z</time>
</trkpt>
<trkpt lat="40.6907148" lon="14.5487702">
<ele>674.020020</ele>
<time>2015-02-13T14:24:28.000Z</time>
</trkpt>
<trkpt lat="40.6907413" lon="14.5486564">
<ele>675.940002</ele>
<time>2015-02-13T14:24:40.000Z</time>
</trkpt>
<trkpt lat="40.6907653" lon="14.5485662">
<ele>677.390015</ele>
<time>2015-02-13T14:24:51.000Z</time>
</trkpt>
<trkpt lat="40.6907756" lon="14.5484929">
<ele>679.309998</ele>
<time>2015-02-13T14:25:02.000Z</time>
</trkpt>
<trkpt lat="40.6907816" lon="14.5484207">
<ele>680.270020</ele>
<time>2015-02-13T14:25:13.000Z</time>
</trkpt>
<trkpt lat="40.6907974" lon="14.5483527">
<ele>682.190002</ele>
<time>2015-02-13T14:25:22.000Z</time>
</trkpt>
<trkpt lat="40.6908036" lon="14.5482498">
<ele>683.630005</ele>
<time>2015-02-13T14:25:33.000Z</time>
</trkpt>
<trkpt lat="40.6907929" lon="14.5481647">
<ele>685.079956</ele>
<time>2015-02-13T14:25:43.000Z</time>
</trkpt>
<trkpt lat="40.6907887" lon="14.5480574">
<ele>687.000000</ele>
<time>2015-02-13T14:25:55.000Z</time>
</trkpt>
<trkpt lat="40.6907710" lon="14.5480114">
<ele>688.440002</ele>
<time>2015-02-13T14:26:05.000Z</time>
</trkpt>
<trkpt lat="40.6907805" lon="14.5479511">
<ele>688.440002</ele>
<time>2015-02-13T14:26:15.000Z</time>
</trkpt>
<trkpt lat="40.6907910" lon="14.5478735">
<ele>688.920044</ele>
<time>2015-02-13T14:26:52.000Z</time>
</trkpt>
<trkpt lat="40.6907913" lon="14.5478748">
<ele>688.440002</ele>
<time>2015-02-13T14:28:05.000Z</time>
</trkpt>
<trkpt lat="40.6907912" lon="14.5478639">
<ele>688.440002</ele>
<time>2015-02-13T14:28:27.000Z</time>
</trkpt>
<trkpt lat="40.6907840" lon="14.5477593">
<ele>688.440002</ele>
<time>2015-02-13T14:28:41.000Z</time>
</trkpt>
<trkpt lat="40.6907943" lon="14.5476612">
<ele>687.479980</ele>
<time>2015-02-13T14:28:51.000Z</time>
</trkpt>
<trkpt lat="40.6908018" lon="14.5475705">
<ele>686.520020</ele>
<time>2015-02-13T14:29:14.000Z</time>
</trkpt>
<trkpt lat="40.6908048" lon="14.5475510">
<ele>686.520020</ele>
<time>2015-02-13T14:29:30.000Z</time>
</trkpt>
<trkpt lat="40.6908194" lon="14.5474909">
<ele>686.520020</ele>
<time>2015-02-13T14:29:40.000Z</time>
</trkpt>
<trkpt lat="40.6908290" lon="14.5473989">
<ele>685.079956</ele>
<time>2015-02-13T14:29:51.000Z</time>
</trkpt>
<trkpt lat="40.6908396" lon="14.5473355">
<ele>684.599976</ele>
<time>2015-02-13T14:30:00.000Z</time>
</trkpt>
<trkpt lat="40.6908385" lon="14.5473412">
<ele>684.599976</ele>
<time>2015-02-13T14:30:16.000Z</time>
</trkpt>
<trkpt lat="40.6908389" lon="14.5473282">
<ele>684.120056</ele>
<time>2015-02-13T14:30:26.000Z</time>
</trkpt>
<trkpt lat="40.6908565" lon="14.5472685">
<ele>682.669983</ele>
<time>2015-02-13T14:31:04.000Z</time>
</trkpt>
<trkpt lat="40.6908316" lon="14.5472099">
<ele>681.229980</ele>
<time>2015-02-13T14:31:14.000Z</time>
</trkpt>
<trkpt lat="40.6908040" lon="14.5470990">
<ele>678.830017</ele>
<time>2015-02-13T14:31:26.000Z</time>
</trkpt>
<trkpt lat="40.6907778" lon="14.5470342">
<ele>677.390015</ele>
<time>2015-02-13T14:31:34.000Z</time>
</trkpt>
<trkpt lat="40.6907686" lon="14.5469217">
<ele>675.460022</ele>
<time>2015-02-13T14:31:44.000Z</time>
</trkpt>
<trkpt lat="40.6907708" lon="14.5469023">
<ele>674.500000</ele>
<time>2015-02-13T14:31:54.000Z</time>
</trkpt>
<trkpt lat="40.6907599" lon="14.5468710">
<ele>674.020020</ele>
<time>2015-02-13T14:32:09.000Z</time>
</trkpt>
<trkpt lat="40.6907529" lon="14.5468106">
<ele>672.579956</ele>
<time>2015-02-13T14:32:15.000Z</time>
</trkpt>
<trkpt lat="40.6907520" lon="14.5467708">
<ele>672.099976</ele>
<time>2015-02-13T14:32:19.000Z</time>
</trkpt>
<trkpt lat="40.6907546" lon="14.5466624">
<ele>669.220032</ele>
<time>2015-02-13T14:32:30.000Z</time>
</trkpt>
<trkpt lat="40.6907222" lon="14.5465769">
<ele>667.770020</ele>
<time>2015-02-13T14:32:41.000Z</time>
</trkpt>
<trkpt lat="40.6906958" lon="14.5464658">
<ele>665.369995</ele>
<time>2015-02-13T14:32:53.000Z</time>
</trkpt>
<trkpt lat="40.6906651" lon="14.5463805">
<ele>663.450012</ele>
<time>2015-02-13T14:33:03.000Z</time>
</trkpt>
<trkpt lat="40.6906622" lon="14.5463548">
<ele>662.969971</ele>
<time>2015-02-13T14:33:05.000Z</time>
</trkpt>
<trkpt lat="40.6905972" lon="14.5461729">
<ele>661.039978</ele>
<time>2015-02-13T14:33:19.000Z</time>
</trkpt>
<trkpt lat="40.6905571" lon="14.5460305">
<ele>660.079956</ele>
<time>2015-02-13T14:33:30.000Z</time>
</trkpt>
<trkpt lat="40.6905525" lon="14.5459119">
<ele>659.120056</ele>
<time>2015-02-13T14:33:41.000Z</time>
</trkpt>
<trkpt lat="40.6905282" lon="14.5458483">
<ele>658.639954</ele>
<time>2015-02-13T14:33:46.000Z</time>
</trkpt>
<trkpt lat="40.6905114" lon="14.5457880">
<ele>657.679993</ele>
<time>2015-02-13T14:33:50.000Z</time>
</trkpt>
<trkpt lat="40.6904605" lon="14.5456273">
<ele>656.239990</ele>
<time>2015-02-13T14:34:03.000Z</time>
</trkpt>
<trkpt lat="40.6904234" lon="14.5455653">
<ele>655.760010</ele>
<time>2015-02-13T14:34:08.000Z</time>
</trkpt>
<trkpt lat="40.6904030" lon="14.5455030">
<ele>655.760010</ele>
<time>2015-02-13T14:34:12.000Z</time>
</trkpt>
<trkpt lat="40.6903505" lon="14.5453961">
<ele>654.799988</ele>
<time>2015-02-13T14:34:23.000Z</time>
</trkpt>
<trkpt lat="40.6903186" lon="14.5452693">
<ele>651.909973</ele>
<time>2015-02-13T14:34:37.000Z</time>
</trkpt>
<trkpt lat="40.6902722" lon="14.5451514">
<ele>649.989990</ele>
<time>2015-02-13T14:34:49.000Z</time>
</trkpt>
<trkpt lat="40.6902259" lon="14.5450204">
<ele>647.099976</ele>
<time>2015-02-13T14:35:01.000Z</time>
</trkpt>
<trkpt lat="40.6901918" lon="14.5449354">
<ele>644.700012</ele>
<time>2015-02-13T14:35:11.000Z</time>
</trkpt>
<trkpt lat="40.6901547" lon="14.5448147">
<ele>642.779968</ele>
<time>2015-02-13T14:35:22.000Z</time>
</trkpt>
<trkpt lat="40.6901316" lon="14.5446728">
<ele>640.859985</ele>
<time>2015-02-13T14:35:33.000Z</time>
</trkpt>
<trkpt lat="40.6901222" lon="14.5446039">
<ele>639.890015</ele>
<time>2015-02-13T14:35:44.000Z</time>
</trkpt>
<trkpt lat="40.6901247" lon="14.5445324">
<ele>639.409973</ele>
<time>2015-02-13T14:35:55.000Z</time>
</trkpt>
<trkpt lat="40.6901211" lon="14.5444345">
<ele>637.009949</ele>
<time>2015-02-13T14:36:06.000Z</time>
</trkpt>
<trkpt lat="40.6901248" lon="14.5443827">
<ele>635.090027</ele>
<time>2015-02-13T14:37:41.000Z</time>
</trkpt>
<trkpt lat="40.6901033" lon="14.5442782">
<ele>632.679993</ele>
<time>2015-02-13T14:37:51.000Z</time>
</trkpt>
<trkpt lat="40.6900837" lon="14.5441897">
<ele>631.239990</ele>
<time>2015-02-13T14:38:01.000Z</time>
</trkpt>
<trkpt lat="40.6900613" lon="14.5441186">
<ele>629.799988</ele>
<time>2015-02-13T14:38:11.000Z</time>
</trkpt>
<trkpt lat="40.6900533" lon="14.5440138">
<ele>627.399963</ele>
<time>2015-02-13T14:38:25.000Z</time>
</trkpt>
<trkpt lat="40.6900246" lon="14.5439272">
<ele>625.960022</ele>
<time>2015-02-13T14:38:36.000Z</time>
</trkpt>
<trkpt lat="40.6900033" lon="14.5438662">
<ele>624.509949</ele>
<time>2015-02-13T14:38:47.000Z</time>
</trkpt>
<trkpt lat="40.6899842" lon="14.5437960">
<ele>623.549988</ele>
<time>2015-02-13T14:39:00.000Z</time>
</trkpt>
<trkpt lat="40.6899720" lon="14.5437269">
<ele>621.630005</ele>
<time>2015-02-13T14:39:10.000Z</time>
</trkpt>
<trkpt lat="40.6899639" lon="14.5437223">
<ele>621.149963</ele>
<time>2015-02-13T14:39:23.000Z</time>
</trkpt>
<trkpt lat="40.6899744" lon="14.5436979">
<ele>621.630005</ele>
<time>2015-02-13T14:39:34.000Z</time>
</trkpt>
<trkpt lat="40.6899403" lon="14.5436362">
<ele>620.669983</ele>
<time>2015-02-13T14:39:45.000Z</time>
</trkpt>
<trkpt lat="40.6899119" lon="14.5435998">
<ele>619.710022</ele>
<time>2015-02-13T14:39:59.000Z</time>
</trkpt>
<trkpt lat="40.6898975" lon="14.5435318">
<ele>619.229980</ele>
<time>2015-02-13T14:40:10.000Z</time>
</trkpt>
<trkpt lat="40.6899061" lon="14.5435391">
<ele>619.229980</ele>
<time>2015-02-13T14:40:25.000Z</time>
</trkpt>
<trkpt lat="40.6898734" lon="14.5434788">
<ele>618.260010</ele>
<time>2015-02-13T14:40:36.000Z</time>
</trkpt>
<trkpt lat="40.6898515" lon="14.5434179">
<ele>617.299988</ele>
<time>2015-02-13T14:40:48.000Z</time>
</trkpt>
<trkpt lat="40.6898323" lon="14.5433639">
<ele>616.340027</ele>
<time>2015-02-13T14:40:59.000Z</time>
</trkpt>
<trkpt lat="40.6898174" lon="14.5433386">
<ele>615.380005</ele>
<time>2015-02-13T14:41:13.000Z</time>
</trkpt>
<trkpt lat="40.6897961" lon="14.5432630">
<ele>614.899963</ele>
<time>2015-02-13T14:41:26.000Z</time>
</trkpt>
<trkpt lat="40.6897886" lon="14.5431954">
<ele>614.419983</ele>
<time>2015-02-13T14:41:37.000Z</time>
</trkpt>
<trkpt lat="40.6897540" lon="14.5431694">
<ele>613.940002</ele>
<time>2015-02-13T14:41:47.000Z</time>
</trkpt>
<trkpt lat="40.6897403" lon="14.5430933">
<ele>612.979980</ele>
<time>2015-02-13T14:41:58.000Z</time>
</trkpt>
<trkpt lat="40.6897215" lon="14.5430179">
<ele>611.540039</ele>
<time>2015-02-13T14:42:08.000Z</time>
</trkpt>
<trkpt lat="40.6897177" lon="14.5429527">
<ele>610.570007</ele>
<time>2015-02-13T14:42:19.000Z</time>
</trkpt>
<trkpt lat="40.6897088" lon="14.5428580">
<ele>608.649963</ele>
<time>2015-02-13T14:42:30.000Z</time>
</trkpt>
<trkpt lat="40.6896853" lon="14.5428332">
<ele>608.169983</ele>
<time>2015-02-13T14:42:42.000Z</time>
</trkpt>
<trkpt lat="40.6896596" lon="14.5428018">
<ele>608.649963</ele>
<time>2015-02-13T14:42:57.000Z</time>
</trkpt>
<trkpt lat="40.6896619" lon="14.5427958">
<ele>608.649963</ele>
<time>2015-02-13T14:43:06.000Z</time>
</trkpt>
<trkpt lat="40.6896621" lon="14.5427447">
<ele>607.690002</ele>
<time>2015-02-13T14:43:16.000Z</time>
</trkpt>
<trkpt lat="40.6896452" lon="14.5427116">
<ele>607.210022</ele>
<time>2015-02-13T14:43:28.000Z</time>
</trkpt>
<trkpt lat="40.6896488" lon="14.5426472">
<ele>606.729980</ele>
<time>2015-02-13T14:43:48.000Z</time>
</trkpt>
<trkpt lat="40.6896584" lon="14.5426251">
<ele>605.769958</ele>
<time>2015-02-13T14:43:59.000Z</time>
</trkpt>
<trkpt lat="40.6896546" lon="14.5426182">
<ele>605.769958</ele>
<time>2015-02-13T14:44:09.000Z</time>
</trkpt>
<trkpt lat="40.6896281" lon="14.5425709">
<ele>605.290039</ele>
<time>2015-02-13T14:44:21.000Z</time>
</trkpt>
<trkpt lat="40.6896059" lon="14.5425025">
<ele>603.849976</ele>
<time>2015-02-13T14:44:33.000Z</time>
</trkpt>
<trkpt lat="40.6895883" lon="14.5424627">
<ele>602.880005</ele>
<time>2015-02-13T14:44:45.000Z</time>
</trkpt>
<trkpt lat="40.6896039" lon="14.5424121">
<ele>602.399963</ele>
<time>2015-02-13T14:44:58.000Z</time>
</trkpt>
<trkpt lat="40.6896003" lon="14.5423636">
<ele>600.479980</ele>
<time>2015-02-13T14:45:08.000Z</time>
</trkpt>
<trkpt lat="40.6896059" lon="14.5422938">
<ele>598.559998</ele>
<time>2015-02-13T14:45:19.000Z</time>
</trkpt>
<trkpt lat="40.6895956" lon="14.5422409">
<ele>597.119995</ele>
<time>2015-02-13T14:45:29.000Z</time>
</trkpt>
<trkpt lat="40.6895970" lon="14.5421822">
<ele>596.149963</ele>
<time>2015-02-13T14:45:41.000Z</time>
</trkpt>
<trkpt lat="40.6896425" lon="14.5421421">
<ele>594.229980</ele>
<time>2015-02-13T14:45:49.000Z</time>
</trkpt>
<trkpt lat="40.6896414" lon="14.5420711">
<ele>591.349976</ele>
<time>2015-02-13T14:45:59.000Z</time>
</trkpt>
<trkpt lat="40.6896339" lon="14.5419810">
<ele>588.950012</ele>
<time>2015-02-13T14:46:11.000Z</time>
</trkpt>
<trkpt lat="40.6896607" lon="14.5419305">
<ele>587.500000</ele>
<time>2015-02-13T14:46:22.000Z</time>
</trkpt>
<trkpt lat="40.6896433" lon="14.5418849">
<ele>586.540039</ele>
<time>2015-02-13T14:46:33.000Z</time>
</trkpt>
<trkpt lat="40.6896115" lon="14.5417873">
<ele>583.179993</ele>
<time>2015-02-13T14:46:45.000Z</time>
</trkpt>
<trkpt lat="40.6896114" lon="14.5417196">
<ele>580.769958</ele>
<time>2015-02-13T14:46:57.000Z</time>
</trkpt>
<trkpt lat="40.6896289" lon="14.5416639">
<ele>579.330017</ele>
<time>2015-02-13T14:47:05.000Z</time>
</trkpt>
<trkpt lat="40.6896204" lon="14.5415984">
<ele>577.409973</ele>
<time>2015-02-13T14:47:14.000Z</time>
</trkpt>
<trkpt lat="40.6895877" lon="14.5415066">
<ele>574.529968</ele>
<time>2015-02-13T14:47:26.000Z</time>
</trkpt>
<trkpt lat="40.6895872" lon="14.5414587">
<ele>572.599976</ele>
<time>2015-02-13T14:47:37.000Z</time>
</trkpt>
<trkpt lat="40.6895933" lon="14.5414306">
<ele>571.159973</ele>
<time>2015-02-13T14:47:48.000Z</time>
</trkpt>
<trkpt lat="40.6896047" lon="14.5413713">
<ele>571.159973</ele>
<time>2015-02-13T14:48:04.000Z</time>
</trkpt>
<trkpt lat="40.6896182" lon="14.5413421">
<ele>571.159973</ele>
<time>2015-02-13T14:48:25.000Z</time>
</trkpt>
<trkpt lat="40.6896164" lon="14.5412808">
<ele>571.159973</ele>
<time>2015-02-13T14:48:46.000Z</time>
</trkpt>
<trkpt lat="40.6896280" lon="14.5412445">
<ele>567.320007</ele>
<time>2015-02-13T14:49:21.000Z</time>
</trkpt>
<trkpt lat="40.6896342" lon="14.5411684">
<ele>563.950012</ele>
<time>2015-02-13T14:49:41.000Z</time>
</trkpt>
<trkpt lat="40.6896266" lon="14.5411231">
<ele>562.510010</ele>
<time>2015-02-13T14:49:51.000Z</time>
</trkpt>
<trkpt lat="40.6896209" lon="14.5411132">
<ele>562.029968</ele>
<time>2015-02-13T14:50:00.000Z</time>
</trkpt>
<trkpt lat="40.6896643" lon="14.5410415">
<ele>559.619995</ele>
<time>2015-02-13T14:50:23.000Z</time>
</trkpt>
<trkpt lat="40.6896939" lon="14.5409607">
<ele>556.260010</ele>
<time>2015-02-13T14:50:35.000Z</time>
</trkpt>
<trkpt lat="40.6897336" lon="14.5408980">
<ele>553.859985</ele>
<time>2015-02-13T14:50:48.000Z</time>
</trkpt>
<trkpt lat="40.6897360" lon="14.5408254">
<ele>550.970032</ele>
<time>2015-02-13T14:51:01.000Z</time>
</trkpt>
<trkpt lat="40.6897538" lon="14.5407435">
<ele>547.609985</ele>
<time>2015-02-13T14:51:12.000Z</time>
</trkpt>
<trkpt lat="40.6897832" lon="14.5406887">
<ele>545.690002</ele>
<time>2015-02-13T14:51:23.000Z</time>
</trkpt>
<trkpt lat="40.6897933" lon="14.5406431">
<ele>544.239990</ele>
<time>2015-02-13T14:51:33.000Z</time>
</trkpt>
<trkpt lat="40.6897888" lon="14.5406265">
<ele>543.279968</ele>
<time>2015-02-13T14:51:44.000Z</time>
</trkpt>
<trkpt lat="40.6898434" lon="14.5405544">
<ele>540.399963</ele>
<time>2015-02-13T14:51:56.000Z</time>
</trkpt>
<trkpt lat="40.6898429" lon="14.5404987">
<ele>538.960022</ele>
<time>2015-02-13T14:52:07.000Z</time>
</trkpt>
<trkpt lat="40.6898637" lon="14.5404207">
<ele>536.549988</ele>
<time>2015-02-13T14:52:18.000Z</time>
</trkpt>
<trkpt lat="40.6898903" lon="14.5403526">
<ele>533.669983</ele>
<time>2015-02-13T14:52:29.000Z</time>
</trkpt>
<trkpt lat="40.6899145" lon="14.5402808">
<ele>531.750000</ele>
<time>2015-02-13T14:52:39.000Z</time>
</trkpt>
<trkpt lat="40.6899287" lon="14.5402203">
<ele>529.340027</ele>
<time>2015-02-13T14:52:51.000Z</time>
</trkpt>
<trkpt lat="40.6899306" lon="14.5401557">
<ele>527.899963</ele>
<time>2015-02-13T14:53:04.000Z</time>
</trkpt>
<trkpt lat="40.6899274" lon="14.5401018">
<ele>525.979980</ele>
<time>2015-02-13T14:53:15.000Z</time>
</trkpt>
<trkpt lat="40.6899577" lon="14.5400094">
<ele>524.059998</ele>
<time>2015-02-13T14:53:27.000Z</time>
</trkpt>
<trkpt lat="40.6899708" lon="14.5399194">
<ele>521.169983</ele>
<time>2015-02-13T14:53:42.000Z</time>
</trkpt>
<trkpt lat="40.6899889" lon="14.5398344">
<ele>518.770020</ele>
<time>2015-02-13T14:53:53.000Z</time>
</trkpt>
<trkpt lat="40.6899920" lon="14.5397734">
<ele>516.850037</ele>
<time>2015-02-13T14:54:05.000Z</time>
</trkpt>
<trkpt lat="40.6899588" lon="14.5397123">
<ele>515.399963</ele>
<time>2015-02-13T14:54:17.000Z</time>
</trkpt>
<trkpt lat="40.6899963" lon="14.5396959">
<ele>515.399963</ele>
<time>2015-02-13T14:54:30.000Z</time>
</trkpt>
<trkpt lat="40.6900066" lon="14.5396603">
<ele>514.440002</ele>
<time>2015-02-13T14:54:41.000Z</time>
</trkpt>
<trkpt lat="40.6900097" lon="14.5395982">
<ele>512.520020</ele>
<time>2015-02-13T14:54:52.000Z</time>
</trkpt>
<trkpt lat="40.6900116" lon="14.5395321">
<ele>510.600006</ele>
<time>2015-02-13T14:55:03.000Z</time>
</trkpt>
<trkpt lat="40.6900452" lon="14.5394853">
<ele>510.119995</ele>
<time>2015-02-13T14:55:18.000Z</time>
</trkpt>
<trkpt lat="40.6900572" lon="14.5394542">
<ele>509.160004</ele>
<time>2015-02-13T14:55:34.000Z</time>
</trkpt>
<trkpt lat="40.6900400" lon="14.5394257">
<ele>507.229980</ele>
<time>2015-02-13T14:55:44.000Z</time>
</trkpt>
<trkpt lat="40.6900501" lon="14.5393836">
<ele>505.790009</ele>
<time>2015-02-13T14:55:54.000Z</time>
</trkpt>
<trkpt lat="40.6900548" lon="14.5392896">
<ele>503.869995</ele>
<time>2015-02-13T14:56:04.000Z</time>
</trkpt>
<trkpt lat="40.6900317" lon="14.5392031">
<ele>500.500031</ele>
<time>2015-02-13T14:56:17.000Z</time>
</trkpt>
<trkpt lat="40.6900209" lon="14.5391478">
<ele>499.059998</ele>
<time>2015-02-13T14:56:27.000Z</time>
</trkpt>
<trkpt lat="40.6900367" lon="14.5390703">
<ele>497.139984</ele>
<time>2015-02-13T14:56:37.000Z</time>
</trkpt>
<trkpt lat="40.6900459" lon="14.5390004">
<ele>494.739990</ele>
<time>2015-02-13T14:56:47.000Z</time>
</trkpt>
<trkpt lat="40.6900658" lon="14.5389196">
<ele>492.329987</ele>
<time>2015-02-13T14:56:59.000Z</time>
</trkpt>
<trkpt lat="40.6900749" lon="14.5388614">
<ele>490.410004</ele>
<time>2015-02-13T14:57:09.000Z</time>
</trkpt>
<trkpt lat="40.6901021" lon="14.5387990">
<ele>488.489990</ele>
<time>2015-02-13T14:57:18.000Z</time>
</trkpt>
<trkpt lat="40.6901213" lon="14.5387543">
<ele>487.530029</ele>
<time>2015-02-13T14:57:27.000Z</time>
</trkpt>
<trkpt lat="40.6901205" lon="14.5387191">
<ele>486.079987</ele>
<time>2015-02-13T14:57:35.000Z</time>
</trkpt>
<trkpt lat="40.6901255" lon="14.5386649">
<ele>485.119995</ele>
<time>2015-02-13T14:57:45.000Z</time>
</trkpt>
<trkpt lat="40.6901281" lon="14.5386100">
<ele>483.679993</ele>
<time>2015-02-13T14:57:57.000Z</time>
</trkpt>
<trkpt lat="40.6901204" lon="14.5385937">
<ele>483.200012</ele>
<time>2015-02-13T14:58:05.000Z</time>
</trkpt>
<trkpt lat="40.6901132" lon="14.5385498">
<ele>482.720001</ele>
<time>2015-02-13T14:58:16.000Z</time>
</trkpt>
<trkpt lat="40.6901029" lon="14.5384835">
<ele>482.239990</ele>
<time>2015-02-13T14:58:29.000Z</time>
</trkpt>
<trkpt lat="40.6900979" lon="14.5384587">
<ele>482.239990</ele>
<time>2015-02-13T14:58:48.000Z</time>
</trkpt>
<trkpt lat="40.6901046" lon="14.5383947">
<ele>480.320007</ele>
<time>2015-02-13T14:59:00.000Z</time>
</trkpt>
<trkpt lat="40.6900992" lon="14.5383169">
<ele>478.869995</ele>
<time>2015-02-13T14:59:10.000Z</time>
</trkpt>
<trkpt lat="40.6900950" lon="14.5382199">
<ele>476.950012</ele>
<time>2015-02-13T14:59:21.000Z</time>
</trkpt>
<trkpt lat="40.6901016" lon="14.5381664">
<ele>475.989990</ele>
<time>2015-02-13T14:59:31.000Z</time>
</trkpt>
<trkpt lat="40.6901201" lon="14.5381084">
<ele>475.509979</ele>
<time>2015-02-13T14:59:41.000Z</time>
</trkpt>
<trkpt lat="40.6901427" lon="14.5380390">
<ele>473.109985</ele>
<time>2015-02-13T14:59:51.000Z</time>
</trkpt>
<trkpt lat="40.6901587" lon="14.5379701">
<ele>471.179993</ele>
<time>2015-02-13T15:00:03.000Z</time>
</trkpt>
<trkpt lat="40.6901718" lon="14.5378837">
<ele>469.259979</ele>
<time>2015-02-13T15:00:12.000Z</time>
</trkpt>
<trkpt lat="40.6901853" lon="14.5377978">
<ele>467.339996</ele>
<time>2015-02-13T15:00:23.000Z</time>
</trkpt>
<trkpt lat="40.6901997" lon="14.5377460">
<ele>466.380005</ele>
<time>2015-02-13T15:00:28.000Z</time>
</trkpt>
<trkpt lat="40.6901845" lon="14.5377130">
<ele>465.899994</ele>
<time>2015-02-13T15:00:31.000Z</time>
</trkpt>
<trkpt lat="40.6901720" lon="14.5376584">
<ele>464.929993</ele>
<time>2015-02-13T15:00:37.000Z</time>
</trkpt>
<trkpt lat="40.6901591" lon="14.5375390">
<ele>463.009979</ele>
<time>2015-02-13T15:00:47.000Z</time>
</trkpt>
<trkpt lat="40.6901337" lon="14.5374429">
<ele>462.050018</ele>
<time>2015-02-13T15:00:57.000Z</time>
</trkpt>
<trkpt lat="40.6901308" lon="14.5374316">
<ele>461.570007</ele>
<time>2015-02-13T15:00:58.000Z</time>
</trkpt>
<trkpt lat="40.6901203" lon="14.5373543">
<ele>460.609985</ele>
<time>2015-02-13T15:01:07.000Z</time>
</trkpt>
<trkpt lat="40.6901111" lon="14.5372590">
<ele>458.209991</ele>
<time>2015-02-13T15:01:19.000Z</time>
</trkpt>
<trkpt lat="40.6901130" lon="14.5372288">
<ele>457.720001</ele>
<time>2015-02-13T15:01:33.000Z</time>
</trkpt>
<trkpt lat="40.6901592" lon="14.5371101">
<ele>455.320007</ele>
<time>2015-02-13T15:01:44.000Z</time>
</trkpt>
<trkpt lat="40.6902194" lon="14.5369960">
<ele>452.920013</ele>
<time>2015-02-13T15:01:56.000Z</time>
</trkpt>
<trkpt lat="40.6902105" lon="14.5369540">
<ele>452.920013</ele>
<time>2015-02-13T15:02:08.000Z</time>
</trkpt>
<trkpt lat="40.6901825" lon="14.5368963">
<ele>452.440002</ele>
<time>2015-02-13T15:02:21.000Z</time>
</trkpt>
<trkpt lat="40.6901717" lon="14.5368586">
<ele>451.959991</ele>
<time>2015-02-13T15:02:36.000Z</time>
</trkpt>
<trkpt lat="40.6902023" lon="14.5368222">
<ele>452.440002</ele>
<time>2015-02-13T15:02:54.000Z</time>
</trkpt>
<trkpt lat="40.6901981" lon="14.5367981">
<ele>451.959991</ele>
<time>2015-02-13T15:03:05.000Z</time>
</trkpt>
<trkpt lat="40.6902152" lon="14.5366790">
<ele>451.000000</ele>
<time>2015-02-13T15:03:17.000Z</time>
</trkpt>
<trkpt lat="40.6902183" lon="14.5366348">
<ele>451.000000</ele>
<time>2015-02-13T15:03:24.000Z</time>
</trkpt>
<trkpt lat="40.6902136" lon="14.5365835">
<ele>450.519989</ele>
<time>2015-02-13T15:03:28.000Z</time>
</trkpt>
<trkpt lat="40.6902144" lon="14.5364752">
<ele>449.550018</ele>
<time>2015-02-13T15:03:37.000Z</time>
</trkpt>
<trkpt lat="40.6902317" lon="14.5364040">
<ele>448.589996</ele>
<time>2015-02-13T15:03:42.000Z</time>
</trkpt>
<trkpt lat="40.6902489" lon="14.5363195">
<ele>448.109985</ele>
<time>2015-02-13T15:03:50.000Z</time>
</trkpt>
<trkpt lat="40.6902529" lon="14.5361748">
<ele>446.670013</ele>
<time>2015-02-13T15:04:00.000Z</time>
</trkpt>
<trkpt lat="40.6902912" lon="14.5360220">
<ele>445.230011</ele>
<time>2015-02-13T15:04:11.000Z</time>
</trkpt>
<trkpt lat="40.6903028" lon="14.5358394">
<ele>444.269989</ele>
<time>2015-02-13T15:04:26.000Z</time>
</trkpt>
<trkpt lat="40.6903644" lon="14.5357160">
<ele>443.309998</ele>
<time>2015-02-13T15:04:37.000Z</time>
</trkpt>
<trkpt lat="40.6903865" lon="14.5355994">
<ele>442.820007</ele>
<time>2015-02-13T15:04:47.000Z</time>
</trkpt>
<trkpt lat="40.6903965" lon="14.5354251">
<ele>441.859985</ele>
<time>2015-02-13T15:04:59.000Z</time>
</trkpt>
<trkpt lat="40.6903947" lon="14.5353964">
<ele>441.859985</ele>
<time>2015-02-13T15:05:01.000Z</time>
</trkpt>
<trkpt lat="40.6903809" lon="14.5353557">
<ele>441.380005</ele>
<time>2015-02-13T15:05:05.000Z</time>
</trkpt>
<trkpt lat="40.6904477" lon="14.5351773">
<ele>440.420013</ele>
<time>2015-02-13T15:05:19.000Z</time>
</trkpt>
<trkpt lat="40.6904652" lon="14.5350437">
<ele>439.940002</ele>
<time>2015-02-13T15:05:31.000Z</time>
</trkpt>
<trkpt lat="40.6904853" lon="14.5348793">
<ele>439.459991</ele>
<time>2015-02-13T15:05:43.000Z</time>
</trkpt>
<trkpt lat="40.6904893" lon="14.5348578">
<ele>438.980011</ele>
<time>2015-02-13T15:05:45.000Z</time>
</trkpt>
<trkpt lat="40.6905119" lon="14.5347329">
<ele>438.500000</ele>
<time>2015-02-13T15:05:57.000Z</time>
</trkpt>
<trkpt lat="40.6905182" lon="14.5346337">
<ele>438.019989</ele>
<time>2015-02-13T15:06:09.000Z</time>
</trkpt>
<trkpt lat="40.6905225" lon="14.5345218">
<ele>437.059998</ele>
<time>2015-02-13T15:06:20.000Z</time>
</trkpt>
<trkpt lat="40.6905381" lon="14.5344252">
<ele>436.100006</ele>
<time>2015-02-13T15:06:30.000Z</time>
</trkpt>
<trkpt lat="40.6905641" lon="14.5343328">
<ele>434.649994</ele>
<time>2015-02-13T15:06:40.000Z</time>
</trkpt>
<trkpt lat="40.6905752" lon="14.5342344">
<ele>433.690002</ele>
<time>2015-02-13T15:06:51.000Z</time>
</trkpt>
<trkpt lat="40.6906185" lon="14.5341520">
<ele>433.209991</ele>
<time>2015-02-13T15:07:02.000Z</time>
</trkpt>
<trkpt lat="40.6906490" lon="14.5340904">
<ele>431.769989</ele>
<time>2015-02-13T15:07:16.000Z</time>
</trkpt>
<trkpt lat="40.6906570" lon="14.5339940">
<ele>429.850006</ele>
<time>2015-02-13T15:07:27.000Z</time>
</trkpt>
<trkpt lat="40.6906814" lon="14.5338632">
<ele>427.440002</ele>
<time>2015-02-13T15:07:38.000Z</time>
</trkpt>
<trkpt lat="40.6906927" lon="14.5337510">
<ele>425.039978</ele>
<time>2015-02-13T15:07:50.000Z</time>
</trkpt>
<trkpt lat="40.6907186" lon="14.5336341">
<ele>421.680023</ele>
<time>2015-02-13T15:08:04.000Z</time>
</trkpt>
<trkpt lat="40.6907620" lon="14.5335704">
<ele>420.709991</ele>
<time>2015-02-13T15:08:15.000Z</time>
</trkpt>
<trkpt lat="40.6907801" lon="14.5335059">
<ele>418.309998</ele>
<time>2015-02-13T15:08:25.000Z</time>
</trkpt>
<trkpt lat="40.6908097" lon="14.5334126">
<ele>414.950012</ele>
<time>2015-02-13T15:08:37.000Z</time>
</trkpt>
<trkpt lat="40.6908130" lon="14.5333334">
<ele>413.019989</ele>
<time>2015-02-13T15:08:49.000Z</time>
</trkpt>
<trkpt lat="40.6908249" lon="14.5332791">
<ele>411.580017</ele>
<time>2015-02-13T15:09:00.000Z</time>
</trkpt>
<trkpt lat="40.6908503" lon="14.5331649">
<ele>408.700012</ele>
<time>2015-02-13T15:09:14.000Z</time>
</trkpt>
<trkpt lat="40.6908944" lon="14.5330989">
<ele>406.289978</ele>
<time>2015-02-13T15:09:24.000Z</time>
</trkpt>
<trkpt lat="40.6909143" lon="14.5330323">
<ele>403.410004</ele>
<time>2015-02-13T15:09:37.000Z</time>
</trkpt>
<trkpt lat="40.6909184" lon="14.5329629">
<ele>401.489990</ele>
<time>2015-02-13T15:09:47.000Z</time>
</trkpt>
<trkpt lat="40.6909588" lon="14.5328896">
<ele>399.570007</ele>
<time>2015-02-13T15:09:58.000Z</time>
</trkpt>
<trkpt lat="40.6909720" lon="14.5328011">
<ele>397.160004</ele>
<time>2015-02-13T15:10:10.000Z</time>
</trkpt>
<trkpt lat="40.6910251" lon="14.5327285">
<ele>394.760010</ele>
<time>2015-02-13T15:10:20.000Z</time>
</trkpt>
<trkpt lat="40.6910494" lon="14.5326682">
<ele>392.839996</ele>
<time>2015-02-13T15:10:32.000Z</time>
</trkpt>
<trkpt lat="40.6910986" lon="14.5325849">
<ele>391.869995</ele>
<time>2015-02-13T15:10:43.000Z</time>
</trkpt>
<trkpt lat="40.6910661" lon="14.5325640">
<ele>391.389984</ele>
<time>2015-02-13T15:10:52.000Z</time>
</trkpt>
<trkpt lat="40.6911171" lon="14.5325346">
<ele>391.869995</ele>
<time>2015-02-13T15:11:03.000Z</time>
</trkpt>
<trkpt lat="40.6911628" lon="14.5325783">
<ele>391.869995</ele>
<time>2015-02-13T15:11:15.000Z</time>
</trkpt>
<trkpt lat="40.6911831" lon="14.5326118">
<ele>391.869995</ele>
<time>2015-02-13T15:11:25.000Z</time>
</trkpt>
<trkpt lat="40.6911990" lon="14.5326383">
<ele>391.389984</ele>
<time>2015-02-13T15:11:38.000Z</time>
</trkpt>
<trkpt lat="40.6912214" lon="14.5326671">
<ele>391.389984</ele>
<time>2015-02-13T15:11:57.000Z</time>
</trkpt>
<trkpt lat="40.6912603" lon="14.5327324">
<ele>390.430023</ele>
<time>2015-02-13T15:12:08.000Z</time>
</trkpt>
<trkpt lat="40.6912875" lon="14.5327853">
<ele>389.470001</ele>
<time>2015-02-13T15:12:18.000Z</time>
</trkpt>
<trkpt lat="40.6912823" lon="14.5329059">
<ele>388.989990</ele>
<time>2015-02-13T15:12:28.000Z</time>
</trkpt>
<trkpt lat="40.6912864" lon="14.5330024">
<ele>389.950012</ele>
<time>2015-02-13T15:12:38.000Z</time>
</trkpt>
<trkpt lat="40.6912986" lon="14.5330883">
<ele>390.910004</ele>
<time>2015-02-13T15:12:49.000Z</time>
</trkpt>
<trkpt lat="40.6912957" lon="14.5332130">
<ele>391.869995</ele>
<time>2015-02-13T15:12:59.000Z</time>
</trkpt>
<trkpt lat="40.6913089" lon="14.5333913">
<ele>393.320007</ele>
<time>2015-02-13T15:13:12.000Z</time>
</trkpt>
<trkpt lat="40.6913099" lon="14.5335013">
<ele>393.799988</ele>
<time>2015-02-13T15:13:22.000Z</time>
</trkpt>
<trkpt lat="40.6913058" lon="14.5335684">
<ele>393.320007</ele>
<time>2015-02-13T15:13:30.000Z</time>
</trkpt>
<trkpt lat="40.6913099" lon="14.5336019">
<ele>391.869995</ele>
<time>2015-02-13T15:13:41.000Z</time>
</trkpt>
<trkpt lat="40.6913129" lon="14.5336126">
<ele>391.869995</ele>
<time>2015-02-13T15:13:56.000Z</time>
</trkpt>
<trkpt lat="40.6913152" lon="14.5336289">
<ele>391.869995</ele>
<time>2015-02-13T15:15:34.000Z</time>
</trkpt>
<trkpt lat="40.6913396" lon="14.5336075">
<ele>390.910004</ele>
<time>2015-02-13T15:15:50.000Z</time>
</trkpt>
<trkpt lat="40.6913536" lon="14.5334745">
<ele>389.470001</ele>
<time>2015-02-13T15:15:56.000Z</time>
</trkpt>
<trkpt lat="40.6913665" lon="14.5333793">
<ele>388.510010</ele>
<time>2015-02-13T15:16:10.000Z</time>
</trkpt>
<trkpt lat="40.6913445" lon="14.5332706">
<ele>387.549988</ele>
<time>2015-02-13T15:16:20.000Z</time>
</trkpt>
<trkpt lat="40.6913343" lon="14.5331996">
<ele>386.589996</ele>
<time>2015-02-13T15:16:26.000Z</time>
</trkpt>
<trkpt lat="40.6913515" lon="14.5330507">
<ele>384.180023</ele>
<time>2015-02-13T15:16:36.000Z</time>
</trkpt>
<trkpt lat="40.6913800" lon="14.5330185">
<ele>382.260010</ele>
<time>2015-02-13T15:16:46.000Z</time>
</trkpt>
<trkpt lat="40.6914134" lon="14.5330338">
<ele>382.260010</ele>
<time>2015-02-13T15:16:47.000Z</time>
</trkpt>
<trkpt lat="40.6914112" lon="14.5331631">
<ele>382.260010</ele>
<time>2015-02-13T15:16:54.000Z</time>
</trkpt>
<trkpt lat="40.6914408" lon="14.5333289">
<ele>383.700012</ele>
<time>2015-02-13T15:17:05.000Z</time>
</trkpt>
<trkpt lat="40.6914491" lon="14.5333940">
<ele>384.180023</ele>
<time>2015-02-13T15:17:16.000Z</time>
</trkpt>
<trkpt lat="40.6914644" lon="14.5335324">
<ele>384.660004</ele>
<time>2015-02-13T15:17:25.000Z</time>
</trkpt>
<trkpt lat="40.6914583" lon="14.5336423">
<ele>384.660004</ele>
<time>2015-02-13T15:17:34.000Z</time>
</trkpt>
<trkpt lat="40.6914740" lon="14.5337544">
<ele>384.660004</ele>
<time>2015-02-13T15:17:44.000Z</time>
</trkpt>
<trkpt lat="40.6915045" lon="14.5337697">
<ele>382.260010</ele>
<time>2015-02-13T15:17:54.000Z</time>
</trkpt>
<trkpt lat="40.6914983" lon="14.5336788">
<ele>379.860016</ele>
<time>2015-02-13T15:18:05.000Z</time>
</trkpt>
<trkpt lat="40.6915487" lon="14.5337313">
<ele>378.419983</ele>
<time>2015-02-13T15:18:14.000Z</time>
</trkpt>
<trkpt lat="40.6915862" lon="14.5338419">
<ele>375.529999</ele>
<time>2015-02-13T15:18:26.000Z</time>
</trkpt>
<trkpt lat="40.6916146" lon="14.5339008">
<ele>374.570007</ele>
<time>2015-02-13T15:18:38.000Z</time>
</trkpt>
<trkpt lat="40.6916454" lon="14.5340115">
<ele>371.210022</ele>
<time>2015-02-13T15:18:51.000Z</time>
</trkpt>
<trkpt lat="40.6916552" lon="14.5339732">
<ele>369.760010</ele>
<time>2015-02-13T15:19:01.000Z</time>
</trkpt>
<trkpt lat="40.6916653" lon="14.5338521">
<ele>367.360016</ele>
<time>2015-02-13T15:19:14.000Z</time>
</trkpt>
<trkpt lat="40.6917216" lon="14.5337273">
<ele>364.480011</ele>
<time>2015-02-13T15:19:26.000Z</time>
</trkpt>
<trkpt lat="40.6917311" lon="14.5336564">
<ele>361.110016</ele>
<time>2015-02-13T15:19:36.000Z</time>
</trkpt>
<trkpt lat="40.6917599" lon="14.5335612">
<ele>358.710022</ele>
<time>2015-02-13T15:19:48.000Z</time>
</trkpt>
<trkpt lat="40.6917917" lon="14.5334428">
<ele>356.309998</ele>
<time>2015-02-13T15:20:00.000Z</time>
</trkpt>
<trkpt lat="40.6918324" lon="14.5334641">
<ele>355.339996</ele>
<time>2015-02-13T15:20:11.000Z</time>
</trkpt>
<trkpt lat="40.6918691" lon="14.5334837">
<ele>352.939972</ele>
<time>2015-02-13T15:21:05.000Z</time>
</trkpt>
<trkpt lat="40.6918960" lon="14.5335098">
<ele>351.500000</ele>
<time>2015-02-13T15:21:17.000Z</time>
</trkpt>
<trkpt lat="40.6919169" lon="14.5335261">
<ele>350.540009</ele>
<time>2015-02-13T15:21:24.000Z</time>
</trkpt>
<trkpt lat="40.6919197" lon="14.5336500">
<ele>350.059998</ele>
<time>2015-02-13T15:21:35.000Z</time>
</trkpt>
<trkpt lat="40.6919419" lon="14.5336870">
<ele>350.059998</ele>
<time>2015-02-13T15:21:42.000Z</time>
</trkpt>
<trkpt lat="40.6919594" lon="14.5337339">
<ele>349.579987</ele>
<time>2015-02-13T15:21:46.000Z</time>
</trkpt>
<trkpt lat="40.6919507" lon="14.5338794">
<ele>347.649994</ele>
<time>2015-02-13T15:21:56.000Z</time>
</trkpt>
<trkpt lat="40.6919624" lon="14.5340145">
<ele>345.250000</ele>
<time>2015-02-13T15:22:04.000Z</time>
</trkpt>
<trkpt lat="40.6919708" lon="14.5341917">
<ele>341.890015</ele>
<time>2015-02-13T15:22:15.000Z</time>
</trkpt>
<trkpt lat="40.6919740" lon="14.5343082">
<ele>339.960022</ele>
<time>2015-02-13T15:22:26.000Z</time>
</trkpt>
<trkpt lat="40.6919731" lon="14.5344301">
<ele>339.000000</ele>
<time>2015-02-13T15:22:33.000Z</time>
</trkpt>
<trkpt lat="40.6919860" lon="14.5344941">
<ele>338.519989</ele>
<time>2015-02-13T15:22:37.000Z</time>
</trkpt>
<trkpt lat="40.6919927" lon="14.5346207">
<ele>336.600006</ele>
<time>2015-02-13T15:22:44.000Z</time>
</trkpt>
<trkpt lat="40.6919852" lon="14.5347167">
<ele>334.679993</ele>
<time>2015-02-13T15:22:50.000Z</time>
</trkpt>
<trkpt lat="40.6919661" lon="14.5347727">
<ele>333.710022</ele>
<time>2015-02-13T15:22:54.000Z</time>
</trkpt>
<trkpt lat="40.6919498" lon="14.5348532">
<ele>332.750000</ele>
<time>2015-02-13T15:22:58.000Z</time>
</trkpt>
<trkpt lat="40.6919539" lon="14.5348961">
<ele>331.309998</ele>
<time>2015-02-13T15:23:05.000Z</time>
</trkpt>
<trkpt lat="40.6920307" lon="14.5347578">
<ele>327.469971</ele>
<time>2015-02-13T15:23:16.000Z</time>
</trkpt>
<trkpt lat="40.6920617" lon="14.5347137">
<ele>325.540009</ele>
<time>2015-02-13T15:23:26.000Z</time>
</trkpt>
<trkpt lat="40.6920969" lon="14.5347037">
<ele>326.019989</ele>
<time>2015-02-13T15:23:37.000Z</time>
</trkpt>
<trkpt lat="40.6921011" lon="14.5348183">
<ele>324.100006</ele>
<time>2015-02-13T15:23:47.000Z</time>
</trkpt>
<trkpt lat="40.6921009" lon="14.5349470">
<ele>321.699982</ele>
<time>2015-02-13T15:23:54.000Z</time>
</trkpt>
<trkpt lat="40.6920969" lon="14.5350463">
<ele>317.850006</ele>
<time>2015-02-13T15:24:05.000Z</time>
</trkpt>
<trkpt lat="40.6921253" lon="14.5350007">
<ele>315.929993</ele>
<time>2015-02-13T15:24:14.000Z</time>
</trkpt>
<trkpt lat="40.6921448" lon="14.5348998">
<ele>312.569977</ele>
<time>2015-02-13T15:24:25.000Z</time>
</trkpt>
<trkpt lat="40.6922018" lon="14.5349160">
<ele>310.160004</ele>
<time>2015-02-13T15:24:39.000Z</time>
</trkpt>
<trkpt lat="40.6922469" lon="14.5350654">
<ele>307.279999</ele>
<time>2015-02-13T15:24:50.000Z</time>
</trkpt>
<trkpt lat="40.6922480" lon="14.5351298">
<ele>304.880005</ele>
<time>2015-02-13T15:24:59.000Z</time>
</trkpt>
<trkpt lat="40.6922934" lon="14.5351893">
<ele>301.989990</ele>
<time>2015-02-13T15:25:09.000Z</time>
</trkpt>
<trkpt lat="40.6923418" lon="14.5352022">
<ele>299.589996</ele>
<time>2015-02-13T15:25:17.000Z</time>
</trkpt>
<trkpt lat="40.6925199" lon="14.5352275">
<ele>296.699982</ele>
<time>2015-02-13T15:25:33.000Z</time>
</trkpt>
<trkpt lat="40.6926431" lon="14.5352654">
<ele>294.300018</ele>
<time>2015-02-13T15:25:46.000Z</time>
</trkpt>
<trkpt lat="40.6927182" lon="14.5353011">
<ele>291.899994</ele>
<time>2015-02-13T15:25:57.000Z</time>
</trkpt>
<trkpt lat="40.6927950" lon="14.5353299">
<ele>289.010010</ele>
<time>2015-02-13T15:26:08.000Z</time>
</trkpt>
<trkpt lat="40.6928402" lon="14.5353279">
<ele>286.610016</ele>
<time>2015-02-13T15:26:18.000Z</time>
</trkpt>
<trkpt lat="40.6928972" lon="14.5353601">
<ele>284.690002</ele>
<time>2015-02-13T15:26:28.000Z</time>
</trkpt>
<trkpt lat="40.6929544" lon="14.5353962">
<ele>283.729980</ele>
<time>2015-02-13T15:26:38.000Z</time>
</trkpt>
<trkpt lat="40.6929928" lon="14.5354558">
<ele>282.279999</ele>
<time>2015-02-13T15:26:45.000Z</time>
</trkpt>
<trkpt lat="40.6930611" lon="14.5355299">
<ele>279.399994</ele>
<time>2015-02-13T15:26:57.000Z</time>
</trkpt>
<trkpt lat="40.6930900" lon="14.5357008">
<ele>276.519989</ele>
<time>2015-02-13T15:27:09.000Z</time>
</trkpt>
<trkpt lat="40.6931216" lon="14.5358338">
<ele>273.149994</ele>
<time>2015-02-13T15:27:21.000Z</time>
</trkpt>
<trkpt lat="40.6931385" lon="14.5360789">
<ele>271.229980</ele>
<time>2015-02-13T15:27:31.000Z</time>
</trkpt>
<trkpt lat="40.6931507" lon="14.5362506">
<ele>268.829987</ele>
<time>2015-02-13T15:27:42.000Z</time>
</trkpt>
<trkpt lat="40.6931735" lon="14.5363370">
<ele>265.940002</ele>
<time>2015-02-13T15:27:52.000Z</time>
</trkpt>
<trkpt lat="40.6932211" lon="14.5362966">
<ele>263.059998</ele>
<time>2015-02-13T15:28:04.000Z</time>
</trkpt>
<trkpt lat="40.6932791" lon="14.5362703">
<ele>260.170013</ele>
<time>2015-02-13T15:28:15.000Z</time>
</trkpt>
<trkpt lat="40.6933485" lon="14.5362273">
<ele>257.769989</ele>
<time>2015-02-13T15:28:26.000Z</time>
</trkpt>
<trkpt lat="40.6934392" lon="14.5361894">
<ele>254.889999</ele>
<time>2015-02-13T15:28:39.000Z</time>
</trkpt>
<trkpt lat="40.6934502" lon="14.5361676">
<ele>254.410004</ele>
<time>2015-02-13T15:28:42.000Z</time>
</trkpt>
<trkpt lat="40.6934861" lon="14.5360878">
<ele>252.479996</ele>
<time>2015-02-13T15:28:52.000Z</time>
</trkpt>
<trkpt lat="40.6935038" lon="14.5360427">
<ele>251.040009</ele>
<time>2015-02-13T15:28:58.000Z</time>
</trkpt>
<trkpt lat="40.6935480" lon="14.5359731">
<ele>250.559998</ele>
<time>2015-02-13T15:29:10.000Z</time>
</trkpt>
<trkpt lat="40.6935631" lon="14.5359415">
<ele>250.559998</ele>
<time>2015-02-13T15:29:21.000Z</time>
</trkpt>
<trkpt lat="40.6935591" lon="14.5359151">
<ele>250.559998</ele>
<time>2015-02-13T15:29:35.000Z</time>
</trkpt>
<trkpt lat="40.6935692" lon="14.5358619">
<ele>251.040009</ele>
<time>2015-02-13T15:29:45.000Z</time>
</trkpt>
<trkpt lat="40.6935603" lon="14.5358110">
<ele>251.040009</ele>
<time>2015-02-13T15:30:26.000Z</time>
</trkpt>
<trkpt lat="40.6935258" lon="14.5357168">
<ele>251.040009</ele>
<time>2015-02-13T15:30:51.000Z</time>
</trkpt>
<trkpt lat="40.6935279" lon="14.5356158">
<ele>250.559998</ele>
<time>2015-02-13T15:31:04.000Z</time>
</trkpt>
<trkpt lat="40.6935176" lon="14.5355723">
<ele>250.079987</ele>
<time>2015-02-13T15:31:16.000Z</time>
</trkpt>
<trkpt lat="40.6935155" lon="14.5354916">
<ele>249.119995</ele>
<time>2015-02-13T15:31:39.000Z</time>
</trkpt>
<trkpt lat="40.6935356" lon="14.5354403">
<ele>248.639999</ele>
<time>2015-02-13T15:31:49.000Z</time>
</trkpt>
<trkpt lat="40.6935776" lon="14.5353489">
<ele>249.119995</ele>
<time>2015-02-13T15:32:21.000Z</time>
</trkpt>
<trkpt lat="40.6935066" lon="14.5351481">
<ele>248.160004</ele>
<time>2015-02-13T15:32:37.000Z</time>
</trkpt>
<trkpt lat="40.6934497" lon="14.5350127">
<ele>246.719986</ele>
<time>2015-02-13T15:32:47.000Z</time>
</trkpt>
<trkpt lat="40.6934212" lon="14.5349604">
<ele>246.229996</ele>
<time>2015-02-13T15:32:51.000Z</time>
</trkpt>
<trkpt lat="40.6934201" lon="14.5349237">
<ele>246.229996</ele>
<time>2015-02-13T15:32:53.000Z</time>
</trkpt>
<trkpt lat="40.6934329" lon="14.5348764">
<ele>245.269989</ele>
<time>2015-02-13T15:32:56.000Z</time>
</trkpt>
<trkpt lat="40.6934268" lon="14.5348313">
<ele>245.269989</ele>
<time>2015-02-13T15:32:59.000Z</time>
</trkpt>
<trkpt lat="40.6934107" lon="14.5347501">
<ele>244.790009</ele>
<time>2015-02-13T15:33:05.000Z</time>
</trkpt>
<trkpt lat="40.6933821" lon="14.5346378">
<ele>244.309998</ele>
<time>2015-02-13T15:33:13.000Z</time>
</trkpt>
<trkpt lat="40.6933831" lon="14.5344558">
<ele>242.389999</ele>
<time>2015-02-13T15:33:25.000Z</time>
</trkpt>
<trkpt lat="40.6934244" lon="14.5343713">
<ele>242.389999</ele>
<time>2015-02-13T15:33:38.000Z</time>
</trkpt>
<trkpt lat="40.6934387" lon="14.5343471">
<ele>242.389999</ele>
<time>2015-02-13T15:36:11.000Z</time>
</trkpt>
<trkpt lat="40.6934807" lon="14.5341972">
<ele>241.430008</ele>
<time>2015-02-13T15:36:24.000Z</time>
</trkpt>
<trkpt lat="40.6934843" lon="14.5341752">
<ele>241.430008</ele>
<time>2015-02-13T15:36:26.000Z</time>
</trkpt>
<trkpt lat="40.6934919" lon="14.5340856">
<ele>240.949997</ele>
<time>2015-02-13T15:36:37.000Z</time>
</trkpt>
<trkpt lat="40.6935165" lon="14.5339774">
<ele>240.949997</ele>
<time>2015-02-13T15:36:47.000Z</time>
</trkpt>
<trkpt lat="40.6935550" lon="14.5338237">
<ele>238.540009</ele>
<time>2015-02-13T15:37:01.000Z</time>
</trkpt>
<trkpt lat="40.6935431" lon="14.5337225">
<ele>238.059998</ele>
<time>2015-02-13T15:37:14.000Z</time>
</trkpt>
<trkpt lat="40.6935703" lon="14.5336574">
<ele>238.059998</ele>
<time>2015-02-13T15:37:28.000Z</time>
</trkpt>
<trkpt lat="40.6935590" lon="14.5336288">
<ele>237.579987</ele>
<time>2015-02-13T15:37:41.000Z</time>
</trkpt>
<trkpt lat="40.6935589" lon="14.5335583">
<ele>237.579987</ele>
<time>2015-02-13T15:37:53.000Z</time>
</trkpt>
<trkpt lat="40.6935556" lon="14.5333797">
<ele>236.619995</ele>
<time>2015-02-13T15:38:06.000Z</time>
</trkpt>
<trkpt lat="40.6935267" lon="14.5332429">
<ele>236.139999</ele>
<time>2015-02-13T15:38:18.000Z</time>
</trkpt>
<trkpt lat="40.6935073" lon="14.5330758">
<ele>236.139999</ele>
<time>2015-02-13T15:38:31.000Z</time>
</trkpt>
<trkpt lat="40.6934891" lon="14.5329328">
<ele>236.139999</ele>
<time>2015-02-13T15:38:44.000Z</time>
</trkpt>
<trkpt lat="40.6934934" lon="14.5328189">
<ele>235.660004</ele>
<time>2015-02-13T15:38:58.000Z</time>
</trkpt>
<trkpt lat="40.6934920" lon="14.5327464">
<ele>234.699997</ele>
<time>2015-02-13T15:39:09.000Z</time>
</trkpt>
<trkpt lat="40.6934911" lon="14.5327516">
<ele>233.259995</ele>
<time>2015-02-13T15:40:04.000Z</time>
</trkpt>
<trkpt lat="40.6934783" lon="14.5326773">
<ele>230.369995</ele>
<time>2015-02-13T15:40:30.000Z</time>
</trkpt>
<trkpt lat="40.6934896" lon="14.5325991">
<ele>229.889999</ele>
<time>2015-02-13T15:40:42.000Z</time>
</trkpt>
<trkpt lat="40.6934498" lon="14.5324959">
<ele>228.930008</ele>
<time>2015-02-13T15:40:57.000Z</time>
</trkpt>
<trkpt lat="40.6934439" lon="14.5324705">
<ele>227.490005</ele>
<time>2015-02-13T15:41:07.000Z</time>
</trkpt>
<trkpt lat="40.6934110" lon="14.5324136">
<ele>228.449997</ele>
<time>2015-02-13T15:41:18.000Z</time>
</trkpt>
<trkpt lat="40.6934368" lon="14.5323806">
<ele>229.410004</ele>
<time>2015-02-13T15:41:43.000Z</time>
</trkpt>
<trkpt lat="40.6934704" lon="14.5323716">
<ele>229.410004</ele>
<time>2015-02-13T15:42:02.000Z</time>
</trkpt>
<trkpt lat="40.6934875" lon="14.5323586">
<ele>229.889999</ele>
<time>2015-02-13T15:42:22.000Z</time>
</trkpt>
<trkpt lat="40.6934828" lon="14.5322903">
<ele>229.889999</ele>
<time>2015-02-13T15:42:33.000Z</time>
</trkpt>
<trkpt lat="40.6934285" lon="14.5322781">
<ele>229.889999</ele>
<time>2015-02-13T15:42:50.000Z</time>
</trkpt>
<trkpt lat="40.6933864" lon="14.5322576">
<ele>229.889999</ele>
<time>2015-02-13T15:43:12.000Z</time>
</trkpt>
<trkpt lat="40.6933871" lon="14.5322308">
<ele>229.889999</ele>
<time>2015-02-13T15:43:30.000Z</time>
</trkpt>
<trkpt lat="40.6934001" lon="14.5322098">
<ele>229.889999</ele>
<time>2015-02-13T15:43:42.000Z</time>
</trkpt>
<trkpt lat="40.6933802" lon="14.5321700">
<ele>230.369995</ele>
<time>2015-02-13T15:43:48.000Z</time>
</trkpt>
<trkpt lat="40.6932362" lon="14.5320220">
<ele>231.329987</ele>
<time>2015-02-13T15:44:04.000Z</time>
</trkpt>
<trkpt lat="40.6931989" lon="14.5319433">
<ele>231.329987</ele>
<time>2015-02-13T15:44:14.000Z</time>
</trkpt>
<trkpt lat="40.6931445" lon="14.5317924">
<ele>230.850006</ele>
<time>2015-02-13T15:44:25.000Z</time>
</trkpt>
<trkpt lat="40.6931132" lon="14.5317338">
<ele>230.369995</ele>
<time>2015-02-13T15:44:30.000Z</time>
</trkpt>
<trkpt lat="40.6930704" lon="14.5315096">
<ele>229.410004</ele>
<time>2015-02-13T15:44:45.000Z</time>
</trkpt>
<trkpt lat="40.6930684" lon="14.5314150">
<ele>228.449997</ele>
<time>2015-02-13T15:44:53.000Z</time>
</trkpt>
<trkpt lat="40.6931052" lon="14.5312820">
<ele>227.969986</ele>
<time>2015-02-13T15:45:01.000Z</time>
</trkpt>
<trkpt lat="40.6931274" lon="14.5311190">
<ele>226.529999</ele>
<time>2015-02-13T15:45:12.000Z</time>
</trkpt>
<trkpt lat="40.6931373" lon="14.5309324">
<ele>225.089996</ele>
<time>2015-02-13T15:45:25.000Z</time>
</trkpt>
<trkpt lat="40.6931326" lon="14.5308352">
<ele>224.119995</ele>
<time>2015-02-13T15:45:33.000Z</time>
</trkpt>
<trkpt lat="40.6930771" lon="14.5306733">
<ele>222.680008</ele>
<time>2015-02-13T15:45:47.000Z</time>
</trkpt>
<trkpt lat="40.6930720" lon="14.5305183">
<ele>220.759995</ele>
<time>2015-02-13T15:45:59.000Z</time>
</trkpt>
<trkpt lat="40.6930929" lon="14.5303420">
<ele>219.320007</ele>
<time>2015-02-13T15:46:11.000Z</time>
</trkpt>
<trkpt lat="40.6930965" lon="14.5302068">
<ele>218.359985</ele>
<time>2015-02-13T15:46:21.000Z</time>
</trkpt>
<trkpt lat="40.6931204" lon="14.5300276">
<ele>216.910004</ele>
<time>2015-02-13T15:46:32.000Z</time>
</trkpt>
<trkpt lat="40.6931497" lon="14.5298288">
<ele>214.990005</ele>
<time>2015-02-13T15:46:44.000Z</time>
</trkpt>
<trkpt lat="40.6931268" lon="14.5296337">
<ele>214.029999</ele>
<time>2015-02-13T15:47:00.000Z</time>
</trkpt>
<trkpt lat="40.6931035" lon="14.5294859">
<ele>212.589996</ele>
<time>2015-02-13T15:47:12.000Z</time>
</trkpt>
<trkpt lat="40.6931207" lon="14.5293801">
<ele>210.670013</ele>
<time>2015-02-13T15:47:21.000Z</time>
</trkpt>
<trkpt lat="40.6931381" lon="14.5291815">
<ele>208.740005</ele>
<time>2015-02-13T15:47:36.000Z</time>
</trkpt>
<trkpt lat="40.6931414" lon="14.5291685">
<ele>208.740005</ele>
<time>2015-02-13T15:47:37.000Z</time>
</trkpt>
<trkpt lat="40.6931562" lon="14.5289740">
<ele>206.820007</ele>
<time>2015-02-13T15:47:50.000Z</time>
</trkpt>
<trkpt lat="40.6931507" lon="14.5287958">
<ele>203.940002</ele>
<time>2015-02-13T15:48:03.000Z</time>
</trkpt>
<trkpt lat="40.6931240" lon="14.5286277">
<ele>202.979996</ele>
<time>2015-02-13T15:48:14.000Z</time>
</trkpt>
<trkpt lat="40.6930768" lon="14.5284688">
<ele>201.050003</ele>
<time>2015-02-13T15:48:26.000Z</time>
</trkpt>
<trkpt lat="40.6930368" lon="14.5283162">
<ele>198.649994</ele>
<time>2015-02-13T15:48:38.000Z</time>
</trkpt>
<trkpt lat="40.6929760" lon="14.5281648">
<ele>196.729996</ele>
<time>2015-02-13T15:48:50.000Z</time>
</trkpt>
<trkpt lat="40.6929421" lon="14.5280194">
<ele>194.320007</ele>
<time>2015-02-13T15:49:03.000Z</time>
</trkpt>
<trkpt lat="40.6929360" lon="14.5278791">
<ele>191.920013</ele>
<time>2015-02-13T15:49:13.000Z</time>
</trkpt>
<trkpt lat="40.6929560" lon="14.5276218">
<ele>190.479996</ele>
<time>2015-02-13T15:49:26.000Z</time>
</trkpt>
<trkpt lat="40.6929887" lon="14.5275532">
<ele>190.000000</ele>
<time>2015-02-13T15:49:30.000Z</time>
</trkpt>
<trkpt lat="40.6931093" lon="14.5274011">
<ele>188.080002</ele>
<time>2015-02-13T15:49:43.000Z</time>
</trkpt>
<trkpt lat="40.6932739" lon="14.5272387">
<ele>186.630005</ele>
<time>2015-02-13T15:49:56.000Z</time>
</trkpt>
</trkseg>
</trk>
</gpx>
